Time;durP1;ratioP1;P1;durP2;ratioP2;P2;SDS_P1;SDS_P2;PMS_P1;PMS_P2;Temp;Humidity;BMP_temperature;BMP_pressure;BME280_temperature;BME280_humidity;BME280_pressure;Samples;Min_cycle;Max_cycle;Signal;HPM_P1;HPM_P2
2022/12/29 00:01:38;;;;;;;;;;;10.40;99.90;;;;;;5078843;28;19996;-41
2022/12/29 00:04:04;;;;;;;;;;;10.40;99.90;;;;;;5082589;28;20318;-42
2022/12/29 00:06:30;;;;;;;;;;;10.40;99.90;;;;;;5081788;28;19916;-42
2022/12/29 00:08:55;;;;;;;;;;;10.40;99.90;;;;;;5078054;28;19970;-43
2022/12/29 00:11:22;;;;;;;;;;;10.40;99.90;;;;;;5082096;28;19924;-41
2022/12/29 00:16:32;;;;;;;;;;;10.40;99.90;;;;;;5091213;28;19919;-43
2022/12/29 00:18:57;;;;;;;;;;;10.40;99.90;;;;;;5093359;28;20295;-39
2022/12/29 00:35:12;;;;;;;;;;;10.40;99.90;;;;;;5116314;28;19915;-41
2022/12/29 00:45:52;;;;;;;;;;;10.40;99.90;;;;;;5095746;28;19914;-42
2022/12/29 00:51:02;;;;;;;;;;;10.50;99.90;;;;;;5094583;28;19923;-40
2022/12/29 00:53:27;;;;;;;;;;;10.50;99.90;;;;;;5095131;28;19908;-41
2022/12/29 00:55:53;;;;;;;;;;;10.50;99.90;;;;;;5095101;28;20410;-40
2022/12/29 00:58:18;;;;;;;;;;;10.50;99.90;;;;;;5094273;28;19915;-41
2022/12/29 01:00:44;;;;;;;;;;;10.50;99.90;;;;;;5094987;28;19911;-42
2022/12/29 01:03:09;;;;;;;;;;;10.50;99.90;;;;;;5076721;28;20347;-40
2022/12/29 01:05:37;;;;;;;;;;;10.50;99.90;;;;;;5094179;28;19915;-39
2022/12/29 01:08:03;;;;;;;;;;;10.50;99.90;;;;;;5105060;28;20450;-40
2022/12/29 01:10:29;;;;;;;;;;;10.50;99.90;;;;;;5096643;28;19920;-41
2022/12/29 01:12:54;;;;;;;;;;;10.60;99.90;;;;;;5094891;28;20351;-39
2022/12/29 01:15:20;;;;;;;;;;;10.60;99.90;;;;;;5096494;28;19919;-41
2022/12/29 01:17:45;;;;;;;;;;;10.60;99.90;;;;;;5095947;28;19935;-39
2022/12/29 01:20:10;;;;;;;;;;;10.60;99.90;;;;;;5104237;28;20288;-40
2022/12/29 01:22:36;;;;;;;;;;;10.60;99.90;;;;;;5105390;28;20271;-41
2022/12/29 01:25:02;;;;;;;;;;;10.60;99.90;;;;;;5100163;28;20359;-39
2022/12/29 01:27:27;;;;;;;;;;;10.60;99.90;;;;;;5113552;28;20017;-40
2022/12/29 01:29:53;;;;;;;;;;;10.60;99.90;;;;;;5113667;28;19920;-40
2022/12/29 01:32:18;;;;;;;;;;;10.60;99.90;;;;;;5105529;28;19921;-39
2022/12/29 01:34:43;;;;;;;;;;;10.60;99.90;;;;;;5093839;28;20317;-40
2022/12/29 01:37:09;;;;;;;;;;;10.70;99.90;;;;;;5093355;28;19969;-40
2022/12/29 01:39:34;;;;;;;;;;;10.70;99.90;;;;;;5093483;28;19916;-39
2022/12/29 01:42:00;;;;;;;;;;;10.70;99.90;;;;;;5094154;28;19978;-40
2022/12/29 01:44:44;;;;;;;;;;;10.80;99.90;;;;;;5094106;28;19946;-39
2022/12/29 01:47:10;;;;;;;;;;;10.70;99.90;;;;;;5093277;28;20283;-41
2022/12/29 01:49:35;;;;;;;;;;;10.70;99.90;;;;;;5093937;28;19909;-39
2022/12/29 01:52:03;;;;;;;;;;;10.80;99.90;;;;;;5094077;28;19954;-40
2022/12/29 01:54:42;;;;;;;;;;;10.80;99.90;;;;;;5093257;28;19934;-41
2022/12/29 01:57:09;;;;;;;;;;;10.80;99.90;;;;;;5093830;28;19908;-39
2022/12/29 01:59:38;;;;;;;;;;;10.90;99.90;;;;;;5093721;28;19955;-40
2022/12/29 02:02:04;;;;;;;;;;;10.90;99.90;;;;;;5091836;28;19912;-39
2022/12/29 02:04:31;;;;;;;;;;;10.90;99.90;;;;;;5091997;28;19908;-41
2022/12/29 02:07:00;;;;;;;;;;;10.90;99.90;;;;;;5075623;28;19998;-40
2022/12/29 02:09:26;;;;;;;;;;;10.90;99.90;;;;;;5092858;28;19908;-40
2022/12/29 02:11:51;;;;;;;;;;;10.90;99.90;;;;;;5093608;28;19927;-40
2022/12/29 02:14:17;;;;;;;;;;;10.90;99.90;;;;;;5089969;28;20252;-40
2022/12/29 02:17:04;;;;;;;;;;;10.90;99.90;;;;;;5076690;28;20393;-40
2022/12/29 02:19:49;;;;;;;;;;;11.00;99.90;;;;;;5093584;28;19999;-39
2022/12/29 02:22:29;;;;;;;;;;;11.00;99.90;;;;;;5092624;28;19908;-39
2022/12/29 02:25:04;;;;;;;;;;;11.00;99.90;;;;;;5091527;28;19915;-41
2022/12/29 02:27:48;;;;;;;;;;;11.00;99.90;;;;;;5086319;28;20359;-41
2022/12/29 02:30:13;;;;;;;;;;;11.10;99.90;;;;;;5087177;28;19928;-40
2022/12/29 02:32:58;;;;;;;;;;;11.00;99.90;;;;;;5080249;28;19920;-39
2022/12/29 02:35:28;;;;;;;;;;;11.00;99.90;;;;;;5090463;28;19955;-40
2022/12/29 02:38:05;;;;;;;;;;;11.00;99.90;;;;;;5082366;28;19999;-39
2022/12/29 02:40:46;;;;;;;;;;;11.00;99.90;;;;;;5081558;28;19918;-39
2022/12/29 02:43:33;;;;;;;;;;;11.00;99.90;;;;;;5092307;28;19958;-39
2022/12/29 02:46:15;;;;;;;;;;;10.90;99.90;;;;;;5089542;28;19959;-41
2022/12/29 02:48:43;;;;;;;;;;;10.90;99.90;;;;;;5072682;28;20280;-41
2022/12/29 02:51:20;;;;;;;;;;;10.80;99.90;;;;;;5071705;28;20091;-39
2022/12/29 02:56:29;;;;;;;;;;;10.80;99.90;;;;;;5072557;28;20414;-41
2022/12/29 02:58:55;;;;;;;;;;;10.80;99.90;;;;;;5085784;28;19908;-39
2022/12/29 03:01:20;;;;;;;;;;;10.80;99.90;;;;;;5092808;28;19923;-40
2022/12/29 03:03:51;;;;;;;;;;;10.80;99.90;;;;;;5091431;28;20331;-42
2022/12/29 03:06:26;;;;;;;;;;;10.80;99.90;;;;;;5092681;28;19917;-42
2022/12/29 03:09:10;;;;;;;;;;;10.80;99.90;;;;;;5073901;28;20359;-39
2022/12/29 03:17:26;;;;;;;;;;;10.70;99.90;;;;;;5072985;28;19953;-40
2022/12/29 03:19:54;;;;;;;;;;;10.70;99.90;;;;;;5071807;28;19909;-40
2022/12/29 03:22:27;;;;;;;;;;;10.70;99.90;;;;;;5072444;28;19916;-42
2022/12/29 03:24:54;;;;;;;;;;;10.60;99.90;;;;;;5071818;28;20434;-39
2022/12/29 03:27:22;;;;;;;;;;;10.70;99.90;;;;;;5072501;28;20287;-40
2022/12/29 03:29:53;;;;;;;;;;;10.70;99.90;;;;;;5072344;28;19908;-40
2022/12/29 03:32:19;;;;;;;;;;;10.80;99.90;;;;;;5071412;28;19924;-40
2022/12/29 03:34:46;;;;;;;;;;;10.70;99.90;;;;;;5080423;28;20349;-41
2022/12/29 03:37:14;;;;;;;;;;;10.70;99.90;;;;;;5091775;28;19917;-39
2022/12/29 03:39:40;;;;;;;;;;;10.80;99.90;;;;;;5087832;28;19916;-40
2022/12/29 03:42:09;;;;;;;;;;;10.80;99.90;;;;;;5090286;28;19920;-40
2022/12/29 03:44:36;;;;;;;;;;;10.80;99.90;;;;;;5083625;28;19912;-39
2022/12/29 03:47:01;;;;;;;;;;;10.80;99.90;;;;;;5080829;28;19913;-42
2022/12/29 03:49:27;;;;;;;;;;;10.80;99.90;;;;;;5091812;28;19912;-40
2022/12/29 03:51:53;;;;;;;;;;;10.80;99.90;;;;;;5088332;28;19920;-42
2022/12/29 03:54:18;;;;;;;;;;;10.80;99.90;;;;;;5081204;28;19919;-40
2022/12/29 03:56:44;;;;;;;;;;;10.80;99.90;;;;;;5096177;28;19944;-40
2022/12/29 03:59:09;;;;;;;;;;;10.80;99.90;;;;;;5095827;28;19970;-40
2022/12/29 04:01:35;;;;;;;;;;;10.80;99.90;;;;;;5095326;28;19908;-41
2022/12/29 04:04:00;;;;;;;;;;;10.80;99.90;;;;;;5096249;28;19908;-40
2022/12/29 04:06:26;;;;;;;;;;;10.80;99.90;;;;;;5096009;28;20381;-40
2022/12/29 04:08:51;;;;;;;;;;;10.80;99.90;;;;;;5094550;28;19916;-40
2022/12/29 04:11:17;;;;;;;;;;;10.80;99.90;;;;;;5082648;28;19916;-40
2022/12/29 04:13:42;;;;;;;;;;;10.70;99.90;;;;;;5092155;28;20367;-39
2022/12/29 04:16:08;;;;;;;;;;;10.70;99.90;;;;;;5095139;28;19915;-41
2022/12/29 04:18:33;;;;;;;;;;;10.70;99.90;;;;;;5095874;28;20292;-43
2022/12/29 04:21:03;;;;;;;;;;;10.60;99.90;;;;;;5095766;28;19951;-39
2022/12/29 04:23:30;;;;;;;;;;;10.50;99.90;;;;;;5090167;28;19912;-39
2022/12/29 04:25:55;;;;;;;;;;;10.40;99.90;;;;;;5081092;28;19973;-39
2022/12/29 04:28:21;;;;;;;;;;;10.40;99.90;;;;;;5074517;28;19916;-40
2022/12/29 04:30:46;;;;;;;;;;;10.30;99.90;;;;;;5075330;28;20669;-41
2022/12/29 04:33:12;;;;;;;;;;;10.30;99.90;;;;;;5075054;28;20375;-41
2022/12/29 04:35:37;;;;;;;;;;;10.30;99.90;;;;;;5074137;28;19914;-39
2022/12/29 04:38:03;;;;;;;;;;;10.30;99.90;;;;;;5088527;28;19913;-41
2022/12/29 04:40:28;;;;;;;;;;;10.30;99.90;;;;;;5081669;28;19963;-40
2022/12/29 04:42:54;;;;;;;;;;;10.30;99.90;;;;;;5074331;28;19919;-41
2022/12/29 04:45:19;;;;;;;;;;;10.30;99.90;;;;;;5074944;28;19908;-42
2022/12/29 04:47:45;;;;;;;;;;;10.30;99.90;;;;;;5074871;28;20383;-39
2022/12/29 04:50:12;;;;;;;;;;;10.30;99.90;;;;;;5075103;28;20023;-39
2022/12/29 04:52:37;;;;;;;;;;;10.30;99.90;;;;;;5074619;28;20011;-40
2022/12/29 04:55:03;;;;;;;;;;;10.30;99.90;;;;;;5074758;28;20003;-41
2022/12/29 04:57:29;;;;;;;;;;;10.30;99.90;;;;;;5077730;28;20007;-40
2022/12/29 04:59:54;;;;;;;;;;;10.30;99.90;;;;;;5074787;28;19912;-40
2022/12/29 05:02:20;;;;;;;;;;;10.40;99.90;;;;;;5074555;28;19917;-42
2022/12/29 05:04:46;;;;;;;;;;;10.40;99.90;;;;;;5073928;28;19909;-40
2022/12/29 05:07:11;;;;;;;;;;;10.30;99.90;;;;;;5079676;28;20271;-41
2022/12/29 05:09:37;;;;;;;;;;;10.40;99.90;;;;;;5094735;28;19919;-42
2022/12/29 05:12:02;;;;;;;;;;;10.40;99.90;;;;;;5081447;28;20379;-41
2022/12/29 05:14:28;;;;;;;;;;;10.40;99.90;;;;;;5082792;28;19984;-41
2022/12/29 05:16:53;;;;;;;;;;;10.40;99.90;;;;;;5094944;28;19912;-41
2022/12/29 05:19:19;;;;;;;;;;;10.50;99.90;;;;;;5093682;28;20386;-41
2022/12/29 05:21:44;;;;;;;;;;;10.40;99.90;;;;;;5092585;28;19912;-40
2022/12/29 05:24:10;;;;;;;;;;;10.40;99.90;;;;;;5094684;28;19909;-40
2022/12/29 05:26:35;;;;;;;;;;;10.30;99.90;;;;;;5093769;28;19979;-44
2022/12/29 05:29:01;;;;;;;;;;;10.30;99.90;;;;;;5094157;28;20271;-44
2022/12/29 05:31:26;;;;;;;;;;;10.30;99.90;;;;;;5094036;28;20018;-41
2022/12/29 05:33:52;;;;;;;;;;;10.20;99.90;;;;;;5092131;28;19920;-40
2022/12/29 05:36:18;;;;;;;;;;;10.20;99.90;;;;;;5094570;28;19912;-40
2022/12/29 05:38:43;;;;;;;;;;;10.20;99.90;;;;;;5074916;28;19913;-40
2022/12/29 05:41:09;;;;;;;;;;;10.20;99.90;;;;;;5074050;28;19909;-42
2022/12/29 05:43:34;;;;;;;;;;;10.20;99.90;;;;;;5073907;28;20011;-41
2022/12/29 05:46:00;;;;;;;;;;;10.20;99.90;;;;;;5073017;28;19909;-42
2022/12/29 05:48:25;;;;;;;;;;;10.20;99.90;;;;;;5075578;28;19954;-45
2022/12/29 05:50:51;;;;;;;;;;;10.30;99.90;;;;;;5076021;28;19974;-40
2022/12/29 05:53:17;;;;;;;;;;;10.20;99.90;;;;;;5072988;28;19913;-40
2022/12/29 05:55:43;;;;;;;;;;;10.20;99.90;;;;;;5074354;28;19912;-42
2022/12/29 05:58:09;;;;;;;;;;;10.20;99.90;;;;;;5074740;28;19912;-40
2022/12/29 06:00:34;;;;;;;;;;;10.20;99.90;;;;;;5072830;28;20367;-40
2022/12/29 06:03:00;;;;;;;;;;;10.20;99.90;;;;;;5075150;28;19919;-42
2022/12/29 06:05:25;;;;;;;;;;;10.20;99.90;;;;;;5074256;28;20295;-40
2022/12/29 06:07:51;;;;;;;;;;;10.10;99.90;;;;;;5081089;28;20198;-41
2022/12/29 06:10:16;;;;;;;;;;;10.20;99.90;;;;;;5093726;28;19916;-41
2022/12/29 06:12:42;;;;;;;;;;;10.20;99.90;;;;;;5093473;28;19993;-42
2022/12/29 06:15:07;;;;;;;;;;;10.30;99.90;;;;;;5092742;28;20386;-41
2022/12/29 06:17:33;;;;;;;;;;;10.30;99.90;;;;;;5093147;28;19981;-42
2022/12/29 06:19:58;;;;;;;;;;;10.30;99.90;;;;;;5093542;28;19908;-40
2022/12/29 06:22:24;;;;;;;;;;;10.40;99.90;;;;;;5090796;28;19908;-42
2022/12/29 06:24:49;;;;;;;;;;;10.30;99.90;;;;;;5080613;28;19909;-43
2022/12/29 06:27:15;;;;;;;;;;;10.30;99.90;;;;;;5073250;28;19966;-42
2022/12/29 06:29:41;;;;;;;;;;;10.40;99.90;;;;;;5072177;28;19916;-41
2022/12/29 06:32:06;;;;;;;;;;;10.40;99.90;;;;;;5073414;28;19973;-42
2022/12/29 06:34:32;;;;;;;;;;;10.40;99.90;;;;;;5073037;28;19912;-41
2022/12/29 06:36:57;;;;;;;;;;;10.40;99.90;;;;;;5077326;28;19920;-41
2022/12/29 06:39:23;;;;;;;;;;;10.40;99.90;;;;;;5091557;28;20037;-41
2022/12/29 06:41:51;;;;;;;;;;;10.40;99.90;;;;;;5092156;28;20382;-45
2022/12/29 06:44:16;;;;;;;;;;;10.50;99.90;;;;;;5093240;28;20427;-41
2022/12/29 06:46:42;;;;;;;;;;;10.50;99.90;;;;;;5093012;28;19967;-41
2022/12/29 06:49:07;;;;;;;;;;;10.50;99.90;;;;;;5092262;28;20330;-41
2022/12/29 06:51:33;;;;;;;;;;;10.60;99.90;;;;;;5090929;28;19920;-41
2022/12/29 06:53:58;;;;;;;;;;;10.70;99.90;;;;;;5079494;28;20244;-41
2022/12/29 06:56:23;;;;;;;;;;;10.60;99.90;;;;;;5078048;28;19912;-43
2022/12/29 06:58:49;;;;;;;;;;;10.60;99.90;;;;;;5081639;28;20274;-40
2022/12/29 07:01:14;;;;;;;;;;;10.60;99.90;;;;;;5081875;28;19916;-41
2022/12/29 07:03:43;;;;;;;;;;;10.60;99.90;;;;;;5077748;28;19971;-40
2022/12/29 07:06:08;;;;;;;;;;;10.50;99.90;;;;;;5076029;28;19921;-41
2022/12/29 07:08:34;;;;;;;;;;;10.50;99.90;;;;;;5077251;28;19913;-43
2022/12/29 07:10:59;;;;;;;;;;;10.40;99.90;;;;;;5079159;28;19920;-44
2022/12/29 07:13:25;;;;;;;;;;;10.40;99.90;;;;;;5086091;28;19970;-42
2022/12/29 07:15:50;;;;;;;;;;;10.30;99.90;;;;;;5091813;28;19916;-42
2022/12/29 07:18:16;;;;;;;;;;;10.40;99.90;;;;;;5088011;28;19948;-43
2022/12/29 07:20:41;;;;;;;;;;;10.40;99.90;;;;;;5089465;28;20021;-43
2022/12/29 07:23:07;;;;;;;;;;;10.40;99.90;;;;;;5092664;28;19927;-41
2022/12/29 07:25:34;;;;;;;;;;;10.30;99.90;;;;;;5093042;28;20305;-42
2022/12/29 07:28:00;;;;;;;;;;;10.30;99.90;;;;;;5092599;28;19908;-41
2022/12/29 07:30:25;;;;;;;;;;;10.30;99.90;;;;;;5096104;28;19916;-41
2022/12/29 07:32:51;;;;;;;;;;;10.30;99.90;;;;;;5108090;28;20313;-41
2022/12/29 07:35:16;;;;;;;;;;;10.30;99.90;;;;;;5117136;28;19908;-39
2022/12/29 07:37:42;;;;;;;;;;;10.30;99.90;;;;;;5116865;28;20342;-42
2022/12/29 07:40:08;;;;;;;;;;;10.30;99.90;;;;;;5116256;28;20050;-41
2022/12/29 07:42:34;;;;;;;;;;;10.30;99.90;;;;;;5116763;28;19930;-41
2022/12/29 07:44:59;;;;;;;;;;;10.30;99.90;;;;;;5116920;28;19987;-42
2022/12/29 07:47:25;;;;;;;;;;;10.30;99.90;;;;;;5104821;28;19912;-44
2022/12/29 07:49:51;;;;;;;;;;;10.40;99.90;;;;;;5110660;27;20015;-40
2022/12/29 07:52:16;;;;;;;;;;;10.30;99.90;;;;;;5095494;28;19951;-41
2022/12/29 07:54:42;;;;;;;;;;;10.30;99.90;;;;;;5101674;28;20386;-41
2022/12/29 07:57:07;;;;;;;;;;;10.30;99.90;;;;;;5116751;28;19989;-40
2022/12/29 07:59:33;;;;;;;;;;;10.30;99.90;;;;;;5115772;28;19908;-42
2022/12/29 08:01:58;;;;;;;;;;;10.30;99.90;;;;;;5114881;28;19908;-42
2022/12/29 08:04:24;;;;;;;;;;;10.30;99.90;;;;;;5115743;28;19911;-45
2022/12/29 08:06:49;;;;;;;;;;;10.30;99.90;;;;;;5115625;28;19908;-41
2022/12/29 08:09:14;;;;;;;;;;;10.20;99.90;;;;;;5114244;28;19919;-41
2022/12/29 08:11:40;;;;;;;;;;;10.30;99.90;;;;;;5110298;28;19920;-42
2022/12/29 08:14:06;;;;;;;;;;;10.20;99.90;;;;;;5114859;28;20003;-43
2022/12/29 08:16:32;;;;;;;;;;;10.30;99.90;;;;;;5115716;28;20006;-40
2022/12/29 08:18:58;;;;;;;;;;;10.20;99.90;;;;;;5115878;28;19911;-40
2022/12/29 08:21:24;;;;;;;;;;;10.20;99.90;;;;;;5095325;28;19909;-40
2022/12/29 08:23:50;;;;;;;;;;;10.30;99.90;;;;;;5095760;28;19973;-43
2022/12/29 08:26:15;;;;;;;;;;;10.30;99.90;;;;;;5104411;28;19915;-43
2022/12/29 08:28:40;;;;;;;;;;;10.30;99.90;;;;;;5115195;28;19911;-41
2022/12/29 08:31:06;;;;;;;;;;;10.30;99.90;;;;;;5115862;28;19915;-40
2022/12/29 08:33:31;;;;;;;;;;;10.30;99.90;;;;;;5095807;28;20404;-40
2022/12/29 08:36:04;;;;;;;;;;;10.30;99.90;;;;;;5083740;28;19912;-40
2022/12/29 08:38:30;;;;;;;;;;;10.30;99.90;;;;;;5073406;28;19916;-41
2022/12/29 08:40:56;;;;;;;;;;;10.30;99.90;;;;;;5074660;28;19912;-40
2022/12/29 08:43:21;;;;;;;;;;;10.20;99.90;;;;;;5079047;28;19920;-41
2022/12/29 08:45:47;;;;;;;;;;;10.30;99.90;;;;;;5083556;28;19916;-40
2022/12/29 08:48:12;;;;;;;;;;;10.30;99.90;;;;;;5110868;28;20270;-43
2022/12/29 08:50:38;;;;;;;;;;;10.30;99.90;;;;;;5109934;28;20065;-43
2022/12/29 08:53:03;;;;;;;;;;;10.30;99.90;;;;;;5090885;28;20294;-42
2022/12/29 08:55:29;;;;;;;;;;;10.30;99.90;;;;;;5062750;28;19912;-42
2022/12/29 08:57:54;;;;;;;;;;;10.20;99.90;;;;;;5091727;28;19922;-42
2022/12/29 09:00:20;;;;;;;;;;;10.20;99.90;;;;;;5083564;28;19919;-40
2022/12/29 09:02:46;;;;;;;;;;;10.20;99.90;;;;;;5076861;28;19927;-40
2022/12/29 09:05:11;;;;;;;;;;;10.30;99.90;;;;;;5089225;28;19966;-40
2022/12/29 09:07:37;;;;;;;;;;;10.20;99.90;;;;;;5073745;28;19912;-40
2022/12/29 09:10:02;;;;;;;;;;;10.30;99.90;;;;;;5074125;28;19916;-40
2022/12/29 09:12:28;;;;;;;;;;;10.30;99.90;;;;;;5093817;28;19908;-39
2022/12/29 09:14:53;;;;;;;;;;;10.40;99.90;;;;;;5093413;28;19908;-41
2022/12/29 09:20:04;;;;;;;;;;;10.40;99.90;;;;;;5089021;28;20418;-40
2022/12/29 09:22:29;;;;;;;;;;;10.40;99.90;;;;;;5097503;28;19908;-40
2022/12/29 09:24:54;;;;;;;;;;;10.30;99.90;;;;;;5098086;28;20013;-39
2022/12/29 09:27:20;;;;;;;;;;;10.30;99.90;;;;;;5092294;28;19912;-41
2022/12/29 09:29:45;;;;;;;;;;;10.30;99.90;;;;;;5089616;28;20019;-40
2022/12/29 09:32:11;;;;;;;;;;;10.10;99.90;;;;;;5024638;28;1755696;-40
2022/12/29 09:34:36;;;;;;;;;;;10.10;99.90;;;;;;5088625;28;19986;-40
2022/12/29 09:37:02;;;;;;;;;;;10.10;99.90;;;;;;5079164;28;19916;-42
2022/12/29 09:39:27;;;;;;;;;;;10.10;99.90;;;;;;5082021;28;20342;-42
2022/12/29 09:41:56;;;;;;;;;;;10.00;99.90;;;;;;5077147;28;19913;-44
2022/12/29 09:44:21;;;;;;;;;;;10.00;99.90;;;;;;5081467;28;19919;-41
2022/12/29 09:46:49;;;;;;;;;;;10.00;99.90;;;;;;5080638;28;19916;-41
2022/12/29 09:49:23;;;;;;;;;;;10.00;99.90;;;;;;5076961;28;20340;-41
2022/12/29 09:51:51;;;;;;;;;;;10.00;99.90;;;;;;5073018;28;19960;-40
2022/12/29 09:54:23;;;;;;;;;;;10.00;99.90;;;;;;5073641;28;19909;-41
2022/12/29 09:56:49;;;;;;;;;;;10.00;99.90;;;;;;5073706;28;19916;-41
2022/12/29 09:59:17;;;;;;;;;;;10.00;99.90;;;;;;5072926;28;19978;-41
2022/12/29 10:01:54;;;;;;;;;;;10.00;99.90;;;;;;5078360;28;19919;-41
2022/12/29 10:04:20;;;;;;;;;;;10.00;99.90;;;;;;5093476;28;20010;-44
2022/12/29 10:06:56;;;;;;;;;;;9.90;99.90;;;;;;5090358;28;20004;-41
2022/12/29 10:09:30;;;;;;;;;;;9.90;99.90;;;;;;5093966;28;20058;-41
2022/12/29 10:11:59;;;;;;;;;;;9.90;99.90;;;;;;5093647;28;19951;-40
2022/12/29 10:14:42;;;;;;;;;;;9.80;99.90;;;;;;5092880;28;19908;-42
2022/12/29 10:17:11;;;;;;;;;;;9.80;99.90;;;;;;5093545;28;20371;-41
2022/12/29 10:19:48;;;;;;;;;;;9.80;99.90;;;;;;5093467;28;19916;-39
2022/12/29 10:22:37;;;;;;;;;;;9.80;99.90;;;;;;5091368;28;19912;-44
2022/12/29 10:25:10;;;;;;;;;;;9.80;99.90;;;;;;5093533;28;20378;-41
2022/12/29 10:27:36;;;;;;;;;;;9.80;99.90;;;;;;5092646;28;19908;-41
2022/12/29 10:30:03;;;;;;;;;;;9.80;99.90;;;;;;5093377;28;20378;-42
2022/12/29 10:32:39;;;;;;;;;;;9.80;99.90;;;;;;5093042;28;19924;-42
2022/12/29 10:35:10;;;;;;;;;;;9.80;99.90;;;;;;5092797;28;19999;-40
2022/12/29 10:37:54;;;;;;;;;;;9.80;99.90;;;;;;5093315;28;20385;-43
2022/12/29 10:40:25;;;;;;;;;;;9.70;99.90;;;;;;5093210;28;19915;-42
2022/12/29 10:42:52;;;;;;;;;;;9.70;99.90;;;;;;5090725;28;19912;-41
2022/12/29 10:45:19;;;;;;;;;;;9.60;99.90;;;;;;5093204;28;19976;-42
2022/12/29 10:48:05;;;;;;;;;;;9.60;99.90;;;;;;5093050;28;19908;-40
2022/12/29 10:50:31;;;;;;;;;;;9.60;99.90;;;;;;5092895;28;19925;-40
2022/12/29 10:53:01;;;;;;;;;;;9.50;99.90;;;;;;5091333;28;19916;-44
2022/12/29 10:55:35;;;;;;;;;;;9.50;99.90;;;;;;5080577;28;19913;-44
2022/12/29 10:58:04;;;;;;;;;;;9.50;99.90;;;;;;5080473;28;19919;-42
2022/12/29 11:00:30;;;;;;;;;;;9.40;99.90;;;;;;5077676;28;20028;-42
2022/12/29 11:02:58;;;;;;;;;;;9.40;99.90;;;;;;5078106;28;19939;-44
2022/12/29 11:05:40;;;;;;;;;;;9.40;99.90;;;;;;5082781;28;19908;-43
2022/12/29 11:08:11;;;;;;;;;;;9.40;99.90;;;;;;5072715;28;19909;-43
2022/12/29 11:10:38;;;;;;;;;;;9.40;99.90;;;;;;5080512;28;19973;-42
2022/12/29 11:13:11;;;;;;;;;;;9.30;99.90;;;;;;5089404;28;19919;-40
2022/12/29 11:15:43;;;;;;;;;;;9.30;99.90;;;;;;5092450;28;20042;-43
2022/12/29 11:18:21;;;;;;;;;;;9.30;99.90;;;;;;5091179;28;19919;-42
2022/12/29 11:20:47;;;;;;;;;;;9.30;99.90;;;;;;5085496;28;20008;-42
2022/12/29 11:23:25;;;;;;;;;;;9.40;99.90;;;;;;5088326;28;20003;-40
2022/12/29 11:26:09;;;;;;;;;;;9.40;99.90;;;;;;5092171;28;19952;-41
2022/12/29 11:28:34;;;;;;;;;;;9.40;99.90;;;;;;5073280;28;19913;-41
2022/12/29 11:31:01;;;;;;;;;;;9.50;99.90;;;;;;5071589;28;19923;-41
2022/12/29 11:33:37;;;;;;;;;;;9.50;99.90;;;;;;5072174;28;19920;-41
2022/12/29 11:36:06;;;;;;;;;;;9.50;99.90;;;;;;5072404;28;19996;-41
2022/12/29 11:38:36;;;;;;;;;;;9.50;99.90;;;;;;5071408;28;20382;-42
2022/12/29 11:41:02;;;;;;;;;;;9.50;99.90;;;;;;5072264;28;19999;-42
2022/12/29 11:43:33;;;;;;;;;;;9.50;99.90;;;;;;5072181;28;19908;-41
2022/12/29 11:45:59;;;;;;;;;;;9.50;99.90;;;;;;5071584;28;19909;-41
2022/12/29 11:48:28;;;;;;;;;;;9.50;99.90;;;;;;5072188;28;20275;-41
2022/12/29 11:50:55;;;;;;;;;;;9.60;99.90;;;;;;5072956;28;20031;-40
2022/12/29 11:53:26;;;;;;;;;;;9.60;99.90;;;;;;5071361;28;20356;-41
2022/12/29 11:56:03;;;;;;;;;;;9.60;99.90;;;;;;5072103;28;19909;-39
2022/12/29 11:58:32;;;;;;;;;;;9.60;99.90;;;;;;5071416;28;19996;-40
2022/12/29 12:01:01;;;;;;;;;;;9.70;99.90;;;;;;5072210;28;19955;-41
2022/12/29 12:03:28;;;;;;;;;;;9.70;99.90;;;;;;5072034;28;19908;-40
2022/12/29 12:05:54;;;;;;;;;;;9.80;99.90;;;;;;5071227;28;19909;-41
2022/12/29 12:08:28;;;;;;;;;;;9.80;99.90;;;;;;5072116;28;19916;-41
2022/12/29 12:10:56;;;;;;;;;;;9.80;99.90;;;;;;5072874;28;19924;-42
2022/12/29 12:13:21;;;;;;;;;;;9.90;99.90;;;;;;5071073;28;19908;-40
2022/12/29 12:15:58;;;;;;;;;;;9.90;99.90;;;;;;5075299;28;19939;-42
2022/12/29 12:18:34;;;;;;;;;;;10.00;99.90;;;;;;5080287;28;20496;-40
2022/12/29 12:21:13;;;;;;;;;;;9.90;99.90;;;;;;5074835;28;20356;-40
2022/12/29 12:24:18;;;;;;;;;;;10.00;99.90;;;;;;5084018;28;19951;-40
2022/12/29 12:26:49;;;;;;;;;;;10.20;99.90;;;;;;5033453;28;20000;-40
2022/12/29 12:29:19;;;;;;;;;;;10.30;99.90;;;;;;5019912;28;19945;-42
2022/12/29 12:31:50;;;;;;;;;;;10.30;99.90;;;;;;5051655;28;19920;-41
2022/12/29 12:34:29;;;;;;;;;;;10.30;99.90;;;;;;5094820;28;19962;-43
2022/12/29 12:37:06;;;;;;;;;;;10.30;99.90;;;;;;5095500;28;20260;-40
2022/12/29 12:39:39;;;;;;;;;;;10.20;99.90;;;;;;5095514;28;19908;-41
2022/12/29 12:42:04;;;;;;;;;;;10.00;99.90;;;;;;5099028;28;20378;-42
2022/12/29 12:44:33;;;;;;;;;;;10.00;99.90;;;;;;5097435;28;19998;-41
2022/12/29 12:47:06;;;;;;;;;;;10.00;99.90;;;;;;5095116;28;19944;-41
2022/12/29 12:49:38;;;;;;;;;;;9.90;99.90;;;;;;5094424;28;19994;-40
2022/12/29 12:52:06;;;;;;;;;;;9.90;99.90;;;;;;5076824;28;19916;-41
2022/12/29 12:54:42;;;;;;;;;;;9.90;99.90;;;;;;5094668;28;19908;-41
2022/12/29 12:57:17;;;;;;;;;;;9.90;99.90;;;;;;5094779;28;19915;-41
2022/12/29 12:59:56;;;;;;;;;;;10.00;99.90;;;;;;5095806;28;19952;-40
2022/12/29 13:02:39;;;;;;;;;;;10.00;99.90;;;;;;5094378;28;19916;-42
2022/12/29 13:05:23;;;;;;;;;;;10.00;99.90;;;;;;5095053;28;20377;-41
2022/12/29 13:07:51;;;;;;;;;;;10.00;99.90;;;;;;5094895;28;19908;-40
2022/12/29 13:10:37;;;;;;;;;;;10.00;99.90;;;;;;5094042;28;19939;-42
2022/12/29 13:13:20;;;;;;;;;;;10.00;99.90;;;;;;5080483;28;20008;-42
2022/12/29 13:15:50;;;;;;;;;;;10.00;99.90;;;;;;5093982;28;19908;-41
2022/12/29 13:18:18;;;;;;;;;;;10.00;99.90;;;;;;5094871;28;20038;-40
2022/12/29 13:20:47;;;;;;;;;;;10.10;99.90;;;;;;5095645;28;19916;-41
2022/12/29 13:23:25;;;;;;;;;;;10.10;99.90;;;;;;5093930;28;19998;-41
2022/12/29 13:25:54;;;;;;;;;;;10.10;99.90;;;;;;5093352;28;19908;-41
2022/12/29 13:28:20;;;;;;;;;;;10.20;99.90;;;;;;5094527;28;20034;-40
2022/12/29 13:31:05;;;;;;;;;;;10.20;99.90;;;;;;5093649;28;20026;-40
2022/12/29 13:33:37;;;;;;;;;;;10.20;99.90;;;;;;5075874;28;19921;-40
2022/12/29 13:36:02;;;;;;;;;;;10.30;99.90;;;;;;5074345;28;19908;-42
2022/12/29 13:38:37;;;;;;;;;;;10.20;99.90;;;;;;5073651;28;20043;-42
2022/12/29 13:41:07;;;;;;;;;;;10.20;99.90;;;;;;5087359;28;19916;-43
2022/12/29 13:43:35;;;;;;;;;;;10.10;99.90;;;;;;5094094;28;19912;-42
2022/12/29 13:46:09;;;;;;;;;;;10.00;99.90;;;;;;5093689;28;19908;-43
2022/12/29 13:48:41;;;;;;;;;;;10.00;99.90;;;;;;5094156;28;19909;-41
2022/12/29 13:51:08;;;;;;;;;;;10.00;99.90;;;;;;5093415;28;20005;-42
2022/12/29 13:53:57;;;;;;;;;;;10.00;99.90;;;;;;5094050;28;20286;-40
2022/12/29 13:56:25;;;;;;;;;;;10.00;99.90;;;;;;5094173;28;19915;-40
2022/12/29 13:58:56;;;;;;;;;;;9.90;99.90;;;;;;5093113;28;19969;-41
2022/12/29 14:01:21;;;;;;;;;;;9.80;99.90;;;;;;5093992;28;19908;-40
2022/12/29 14:03:54;;;;;;;;;;;9.80;99.90;;;;;;5090938;28;19912;-42
2022/12/29 14:06:22;;;;;;;;;;;9.80;99.90;;;;;;5073186;28;20356;-40
2022/12/29 14:08:48;;;;;;;;;;;9.80;99.90;;;;;;5079440;28;19923;-42
2022/12/29 14:11:15;;;;;;;;;;;9.80;99.90;;;;;;5083553;28;20450;-41
2022/12/29 14:13:42;;;;;;;;;;;9.80;99.90;;;;;;5092755;28;19908;-42
2022/12/29 14:16:20;;;;;;;;;;;9.80;99.90;;;;;;5091511;28;19919;-42
2022/12/29 14:18:46;;;;;;;;;;;9.80;99.90;;;;;;5083406;28;19916;-44
2022/12/29 14:21:19;;;;;;;;;;;9.80;99.90;;;;;;5088161;28;19916;-42
2022/12/29 14:23:46;;;;;;;;;;;9.60;99.90;;;;;;5079953;28;19912;-42
2022/12/29 14:26:17;;;;;;;;;;;9.60;99.90;;;;;;5072917;28;20011;-41
2022/12/29 14:28:43;;;;;;;;;;;9.60;99.90;;;;;;5096307;28;20335;-42
2022/12/29 14:31:15;;;;;;;;;;;9.60;99.90;;;;;;5091961;28;20018;-42
2022/12/29 14:33:41;;;;;;;;;;;9.50;99.90;;;;;;5113406;27;19923;-42
2022/12/29 14:36:26;;;;;;;;;;;9.50;99.90;;;;;;5119721;27;19938;-42
2022/12/29 14:38:52;;;;;;;;;;;9.50;99.90;;;;;;5110875;28;19933;-40
2022/12/29 14:41:24;;;;;;;;;;;9.50;99.90;;;;;;5094416;28;19916;-42
2022/12/29 14:44:21;;;;;;;;;;;9.60;99.90;;;;;;5113131;28;19916;-42
2022/12/29 14:46:54;;;;;;;;;;;9.50;99.90;;;;;;5057095;28;19953;-41
2022/12/29 14:49:25;;;;;;;;;;;9.50;99.90;;;;;;5118309;27;19922;-42
2022/12/29 14:51:52;;;;;;;;;;;9.50;99.90;;;;;;5133856;27;19916;-42
2022/12/29 14:54:33;;;;;;;;;;;9.40;99.90;;;;;;5096690;27;19920;-41
2022/12/29 14:57:00;;;;;;;;;;;9.40;99.90;;;;;;5093106;28;19908;-40
2022/12/29 14:59:26;;;;;;;;;;;9.40;99.90;;;;;;5092991;28;20324;-41
2022/12/29 15:01:53;;;;;;;;;;;9.40;99.90;;;;;;5099198;28;19912;-40
2022/12/29 15:04:20;;;;;;;;;;;9.40;99.90;;;;;;5109111;27;19908;-41
2022/12/29 15:06:47;;;;;;;;;;;9.30;99.90;;;;;;5133697;27;19915;-43
2022/12/29 15:09:20;;;;;;;;;;;9.30;99.90;;;;;;5108995;27;20340;-42